Salt Lake City, Utah
Traffic Map
Current Weather Conditions
Salt Lake City, Utah
Broken Clouds
Broken Clouds

Feels Like: 2°
Wind Chill: Ceiling: 17000
Heat Index: Visibility: 10mi
Dew Point: -4° Wind: 0mph
Humidity: 64% Direction: ° ()
Pressure: 29.69in Gusts: 0mph
Raw Report DataKSLC 281653Z 00000KT 10SM FEW060 FEW120 BKN170 02/M04 A2969 RMK AO2 SLP055 T00221039
Traffic Incident Summary
Active as of:
Severity:
Category:
InformationThere was an issue retrieving the traffic information for this location. Please try a different location or try again shortly.
Advertisements
Track Severe Weather on mobile